sensor_id;sensor_type;location;lat;lon;timestamp;P1;durP1;ratioP1;P2;durP2;ratioP2
58685;SDS011;44465;53.206;-6.106;2023-04-02T00:08:00;13.82;;;5.95;;
58685;SDS011;44465;53.206;-6.106;2023-04-02T00:10:31;14.90;;;6.20;;
58685;SDS011;44465;53.206;-6.106;2023-04-02T00:15:38;12.38;;;5.43;;
58685;SDS011;44465;53.206;-6.106;2023-04-02T00:18:05;13.52;;;6.05;;
58685;SDS011;44465;53.206;-6.106;2023-04-02T00:20:36;12.98;;;5.00;;
58685;SDS011;44465;53.206;-6.106;2023-04-02T00:23:06;12.85;;;5.28;;
58685;SDS011;44465;53.206;-6.106;2023-04-02T00:25:36;11.82;;;4.82;;
58685;SDS011;44465;53.206;-6.106;2023-04-02T00:28:13;12.57;;;4.88;;
58685;SDS011;44465;53.206;-6.106;2023-04-02T00:33:18;11.93;;;4.97;;
58685;SDS011;44465;53.206;-6.106;2023-04-02T00:35:47;10.90;;;4.57;;
58685;SDS011;44465;53.206;-6.106;2023-04-02T00:38:16;9.25;;;4.00;;
58685;SDS011;44465;53.206;-6.106;2023-04-02T00:40:55;11.90;;;4.82;;
58685;SDS011;44465;53.206;-6.106;2023-04-02T00:43:25;37.13;;;7.20;;
58685;SDS011;44465;53.206;-6.106;2023-04-02T00:45:58;17.90;;;4.80;;
58685;SDS011;44465;53.206;-6.106;2023-04-02T00:51:10;14.65;;;4.85;;
58685;SDS011;44465;53.206;-6.106;2023-04-02T00:53:36;10.57;;;4.45;;
58685;SDS011;44465;53.206;-6.106;2023-04-02T00:56:03;12.18;;;4.18;;
58685;SDS011;44465;53.206;-6.106;2023-04-02T01:01:17;11.52;;;4.07;;
58685;SDS011;44465;53.206;-6.106;2023-04-02T01:03:52;9.25;;;3.95;;
58685;SDS011;44465;53.206;-6.106;2023-04-02T01:06:27;12.57;;;4.22;;
58685;SDS011;44465;53.206;-6.106;2023-04-02T01:20:06;9.73;;;3.88;;
58685;SDS011;44465;53.206;-6.106;2023-04-02T01:25:40;8.52;;;3.17;;
58685;SDS011;44465;53.206;-6.106;2023-04-02T01:30:57;8.57;;;3.38;;
58685;SDS011;44465;53.206;-6.106;2023-04-02T01:33:32;7.10;;;3.13;;
58685;SDS011;44465;53.206;-6.106;2023-04-02T01:36:08;9.77;;;3.28;;
58685;SDS011;44465;53.206;-6.106;2023-04-02T01:38:54;7.32;;;3.50;;
58685;SDS011;44465;53.206;-6.106;2023-04-02T01:44:31;9.32;;;3.15;;
58685;SDS011;44465;53.206;-6.106;2023-04-02T01:47:03;8.35;;;3.17;;
58685;SDS011;44465;53.206;-6.106;2023-04-02T01:49:32;6.72;;;2.97;;
58685;SDS011;44465;53.206;-6.106;2023-04-02T01:51:58;7.28;;;3.35;;
58685;SDS011;44465;53.206;-6.106;2023-04-02T01:54:29;6.78;;;3.13;;
58685;SDS011;44465;53.206;-6.106;2023-04-02T01:56:55;8.53;;;3.07;;
58685;SDS011;44465;53.206;-6.106;2023-04-02T01:59:21;6.63;;;2.78;;
58685;SDS011;44465;53.206;-6.106;2023-04-02T02:01:58;6.25;;;2.90;;
58685;SDS011;44465;53.206;-6.106;2023-04-02T02:04:27;5.25;;;2.65;;
58685;SDS011;44465;53.206;-6.106;2023-04-02T02:06:55;6.97;;;2.73;;
58685;SDS011;44465;53.206;-6.106;2023-04-02T02:09:24;4.00;;;2.28;;
58685;SDS011;44465;53.206;-6.106;2023-04-02T02:11:53;4.60;;;2.05;;
58685;SDS011;44465;53.206;-6.106;2023-04-02T02:16:48;6.60;;;2.38;;
58685;SDS011;44465;53.206;-6.106;2023-04-02T02:19:37;6.03;;;2.50;;
58685;SDS011;44465;53.206;-6.106;2023-04-02T02:22:16;6.82;;;2.22;;
58685;SDS011;44465;53.206;-6.106;2023-04-02T02:24:52;4.65;;;2.17;;
58685;SDS011;44465;53.206;-6.106;2023-04-02T02:29:53;4.45;;;2.05;;
58685;SDS011;44465;53.206;-6.106;2023-04-02T02:32:22;3.35;;;1.95;;
58685;SDS011;44465;53.206;-6.106;2023-04-02T02:37:29;4.85;;;2.03;;
58685;SDS011;44465;53.206;-6.106;2023-04-02T02:40:02;3.88;;;2.20;;
58685;SDS011;44465;53.206;-6.106;2023-04-02T02:45:01;4.55;;;2.25;;
58685;SDS011;44465;53.206;-6.106;2023-04-02T02:47:32;3.63;;;2.20;;
58685;SDS011;44465;53.206;-6.106;2023-04-02T02:50:03;2.97;;;1.90;;
58685;SDS011;44465;53.206;-6.106;2023-04-02T02:52:36;4.40;;;2.05;;
58685;SDS011;44465;53.206;-6.106;2023-04-02T02:55:10;4.97;;;2.33;;
58685;SDS011;44465;53.206;-6.106;2023-04-02T02:57:59;3.53;;;2.10;;
58685;SDS011;44465;53.206;-6.106;2023-04-02T03:01:06;4.30;;;1.90;;
58685;SDS011;44465;53.206;-6.106;2023-04-02T03:03:34;3.03;;;2.03;;
58685;SDS011;44465;53.206;-6.106;2023-04-02T03:11:25;3.78;;;1.65;;
58685;SDS011;44465;53.206;-6.106;2023-04-02T03:14:09;4.93;;;1.70;;
58685;SDS011;44465;53.206;-6.106;2023-04-02T03:16:57;2.42;;;1.70;;
58685;SDS011;44465;53.206;-6.106;2023-04-02T03:24:58;2.63;;;1.60;;
58685;SDS011;44465;53.206;-6.106;2023-04-02T03:27:31;1.77;;;1.60;;
58685;SDS011;44465;53.206;-6.106;2023-04-02T03:30:04;2.67;;;1.85;;
58685;SDS011;44465;53.206;-6.106;2023-04-02T03:33:00;2.97;;;1.80;;
58685;SDS011;44465;53.206;-6.106;2023-04-02T03:35:38;2.28;;;1.65;;
58685;SDS011;44465;53.206;-6.106;2023-04-02T03:38:14;3.60;;;1.70;;
58685;SDS011;44465;53.206;-6.106;2023-04-02T03:43:43;3.42;;;1.67;;
58685;SDS011;44465;53.206;-6.106;2023-04-02T03:46:31;2.88;;;1.60;;
58685;SDS011;44465;53.206;-6.106;2023-04-02T03:49:02;3.25;;;1.60;;
58685;SDS011;44465;53.206;-6.106;2023-04-02T03:51:46;1.80;;;1.60;;
58685;SDS011;44465;53.206;-6.106;2023-04-02T03:54:19;4.32;;;1.27;;
58685;SDS011;44465;53.206;-6.106;2023-04-02T03:56:45;3.33;;;1.65;;
58685;SDS011;44465;53.206;-6.106;2023-04-02T03:59:19;1.83;;;1.70;;
58685;SDS011;44465;53.206;-6.106;2023-04-02T04:01:55;2.30;;;1.60;;
58685;SDS011;44465;53.206;-6.106;2023-04-02T04:06:58;1.83;;;1.50;;
58685;SDS011;44465;53.206;-6.106;2023-04-02T04:09:32;3.03;;;1.58;;
58685;SDS011;44465;53.206;-6.106;2023-04-02T04:12:07;1.80;;;1.40;;
58685;SDS011;44465;53.206;-6.106;2023-04-02T04:14:50;1.70;;;1.58;;
58685;SDS011;44465;53.206;-6.106;2023-04-02T04:22:37;2.47;;;1.30;;
58685;SDS011;44465;53.206;-6.106;2023-04-02T04:25:19;3.03;;;1.35;;
58685;SDS011;44465;53.206;-6.106;2023-04-02T04:31:17;2.55;;;1.33;;
58685;SDS011;44465;53.206;-6.106;2023-04-02T04:33:52;1.80;;;1.25;;
58685;SDS011;44465;53.206;-6.106;2023-04-02T04:36:24;1.20;;;1.05;;
58685;SDS011;44465;53.206;-6.106;2023-04-02T04:38:59;2.60;;;1.30;;
58685;SDS011;44465;53.206;-6.106;2023-04-02T04:41:33;3.50;;;1.30;;
58685;SDS011;44465;53.206;-6.106;2023-04-02T04:52:09;2.30;;;1.45;;
58685;SDS011;44465;53.206;-6.106;2023-04-02T04:54:44;2.30;;;1.10;;
58685;SDS011;44465;53.206;-6.106;2023-04-02T05:00:21;1.63;;;1.17;;
58685;SDS011;44465;53.206;-6.106;2023-04-02T05:02:59;1.73;;;1.00;;
58685;SDS011;44465;53.206;-6.106;2023-04-02T05:05:38;4.35;;;1.60;;
58685;SDS011;44465;53.206;-6.106;2023-04-02T05:10:50;1.63;;;1.15;;
58685;SDS011;44465;53.206;-6.106;2023-04-02T05:13:24;1.20;;;1.10;;
58685;SDS011;44465;53.206;-6.106;2023-04-02T05:18:36;3.30;;;1.05;;
58685;SDS011;44465;53.206;-6.106;2023-04-02T05:21:12;1.55;;;1.30;;
58685;SDS011;44465;53.206;-6.106;2023-04-02T05:26:15;2.13;;;0.90;;
58685;SDS011;44465;53.206;-6.106;2023-04-02T05:31:11;2.58;;;1.63;;
58685;SDS011;44465;53.206;-6.106;2023-04-02T05:33:45;2.42;;;1.20;;
58685;SDS011;44465;53.206;-6.106;2023-04-02T05:36:23;1.88;;;1.33;;
58685;SDS011;44465;53.206;-6.106;2023-04-02T05:38:55;2.42;;;1.35;;
58685;SDS011;44465;53.206;-6.106;2023-04-02T05:41:48;3.08;;;1.20;;
58685;SDS011;44465;53.206;-6.106;2023-04-02T05:44:38;1.20;;;1.10;;
58685;SDS011;44465;53.206;-6.106;2023-04-02T05:47:28;1.60;;;1.50;;
58685;SDS011;44465;53.206;-6.106;2023-04-02T05:52:31;1.33;;;0.93;;
58685;SDS011;44465;53.206;-6.106;2023-04-02T05:57:39;2.10;;;1.20;;
58685;SDS011;44465;53.206;-6.106;2023-04-02T06:00:56;1.35;;;1.08;;
58685;SDS011;44465;53.206;-6.106;2023-04-02T06:02:59;1.92;;;1.10;;
58685;SDS011;44465;53.206;-6.106;2023-04-02T06:05:32;1.60;;;1.02;;
58685;SDS011;44465;53.206;-6.106;2023-04-02T06:08:23;2.13;;;1.00;;
58685;SDS011;44465;53.206;-6.106;2023-04-02T06:11:07;2.78;;;1.33;;
58685;SDS011;44465;53.206;-6.106;2023-04-02T06:13:37;0.70;;;0.70;;
58685;SDS011;44465;53.206;-6.106;2023-04-02T06:16:04;1.15;;;0.93;;
58685;SDS011;44465;53.206;-6.106;2023-04-02T06:18:32;1.67;;;0.80;;
58685;SDS011;44465;53.206;-6.106;2023-04-02T06:21:00;1.10;;;1.00;;
58685;SDS011;44465;53.206;-6.106;2023-04-02T06:31:05;0.88;;;0.88;;
58685;SDS011;44465;53.206;-6.106;2023-04-02T06:33:35;2.17;;;1.17;;
58685;SDS011;44465;53.206;-6.106;2023-04-02T06:36:01;2.72;;;1.00;;
58685;SDS011;44465;53.206;-6.106;2023-04-02T06:38:33;1.83;;;0.95;;
58685;SDS011;44465;53.206;-6.106;2023-04-02T06:41:01;2.88;;;0.98;;
58685;SDS011;44465;53.206;-6.106;2023-04-02T06:44:06;1.08;;;1.02;;
58685;SDS011;44465;53.206;-6.106;2023-04-02T06:46:55;1.50;;;1.00;;
58685;SDS011;44465;53.206;-6.106;2023-04-02T06:52:28;1.45;;;1.05;;
58685;SDS011;44465;53.206;-6.106;2023-04-02T06:55:03;0.90;;;0.90;;
58685;SDS011;44465;53.206;-6.106;2023-04-02T06:57:49;1.83;;;0.77;;
58685;SDS011;44465;53.206;-6.106;2023-04-02T07:00:24;2.13;;;1.13;;
58685;SDS011;44465;53.206;-6.106;2023-04-02T07:03:00;1.77;;;0.93;;
58685;SDS011;44465;53.206;-6.106;2023-04-02T07:05:29;0.93;;;0.82;;
58685;SDS011;44465;53.206;-6.106;2023-04-02T07:07:55;0.95;;;0.75;;
58685;SDS011;44465;53.206;-6.106;2023-04-02T07:10:21;1.27;;;1.10;;
58685;SDS011;44465;53.206;-6.106;2023-04-02T07:12:47;0.95;;;0.95;;
58685;SDS011;44465;53.206;-6.106;2023-04-02T07:15:14;1.83;;;0.90;;
58685;SDS011;44465;53.206;-6.106;2023-04-02T07:17:41;0.95;;;0.70;;
58685;SDS011;44465;53.206;-6.106;2023-04-02T07:20:40;1.13;;;1.02;;
58685;SDS011;44465;53.206;-6.106;2023-04-02T07:23:06;0.63;;;0.63;;
58685;SDS011;44465;53.206;-6.106;2023-04-02T07:25:32;1.23;;;1.05;;
58685;SDS011;44465;53.206;-6.106;2023-04-02T07:27:57;0.88;;;0.85;;
58685;SDS011;44465;53.206;-6.106;2023-04-02T07:30:23;1.75;;;1.02;;
58685;SDS011;44465;53.206;-6.106;2023-04-02T07:32:49;1.38;;;1.27;;
58685;SDS011;44465;53.206;-6.106;2023-04-02T07:35:14;1.25;;;1.15;;
58685;SDS011;44465;53.206;-6.106;2023-04-02T07:37:40;1.13;;;0.90;;
58685;SDS011;44465;53.206;-6.106;2023-04-02T07:40:06;1.92;;;1.10;;
58685;SDS011;44465;53.206;-6.106;2023-04-02T07:42:39;1.38;;;0.95;;
58685;SDS011;44465;53.206;-6.106;2023-04-02T07:45:05;0.80;;;0.80;;
58685;SDS011;44465;53.206;-6.106;2023-04-02T07:47:31;0.82;;;0.70;;
58685;SDS011;44465;53.206;-6.106;2023-04-02T07:49:57;1.90;;;1.25;;
58685;SDS011;44465;53.206;-6.106;2023-04-02T07:52:22;2.17;;;1.30;;
58685;SDS011;44465;53.206;-6.106;2023-04-02T07:54:48;1.00;;;1.00;;
58685;SDS011;44465;53.206;-6.106;2023-04-02T07:57:13;1.48;;;1.10;;
58685;SDS011;44465;53.206;-6.106;2023-04-02T07:59:39;2.08;;;1.15;;
58685;SDS011;44465;53.206;-6.106;2023-04-02T08:02:05;1.52;;;1.08;;
58685;SDS011;44465;53.206;-6.106;2023-04-02T08:04:30;1.25;;;1.00;;
58685;SDS011;44465;53.206;-6.106;2023-04-02T08:06:56;1.52;;;1.23;;
58685;SDS011;44465;53.206;-6.106;2023-04-02T08:09:21;1.40;;;1.20;;
58685;SDS011;44465;53.206;-6.106;2023-04-02T08:11:47;0.93;;;0.90;;
58685;SDS011;44465;53.206;-6.106;2023-04-02T08:14:12;3.33;;;1.40;;
58685;SDS011;44465;53.206;-6.106;2023-04-02T08:16:56;6.75;;;1.83;;
58685;SDS011;44465;53.206;-6.106;2023-04-02T08:19:22;1.50;;;1.20;;
58685;SDS011;44465;53.206;-6.106;2023-04-02T08:21:48;6.35;;;1.73;;
58685;SDS011;44465;53.206;-6.106;2023-04-02T08:24:16;6.20;;;1.58;;
58685;SDS011;44465;53.206;-6.106;2023-04-02T08:29:12;6.22;;;1.95;;
58685;SDS011;44465;53.206;-6.106;2023-04-02T08:31:38;5.65;;;2.17;;
58685;SDS011;44465;53.206;-6.106;2023-04-02T08:34:04;8.60;;;3.20;;
58685;SDS011;44465;53.206;-6.106;2023-04-02T08:36:34;22.55;;;5.05;;
58685;SDS011;44465;53.206;-6.106;2023-04-02T08:39:02;32.17;;;8.77;;
58685;SDS011;44465;53.206;-6.106;2023-04-02T08:44:09;38.33;;;10.93;;
58685;SDS011;44465;53.206;-6.106;2023-04-02T08:47:14;44.83;;;12.65;;
58685;SDS011;44465;53.206;-6.106;2023-04-02T08:49:49;59.83;;;17.23;;
58685;SDS011;44465;53.206;-6.106;2023-04-02T08:52:21;64.10;;;18.63;;
58685;SDS011;44465;53.206;-6.106;2023-04-02T08:54:51;77.85;;;23.50;;
58685;SDS011;44465;53.206;-6.106;2023-04-02T08:57:23;89.88;;;24.65;;
58685;SDS011;44465;53.206;-6.106;2023-04-02T09:00:04;95.50;;;27.25;;
58685;SDS011;44465;53.206;-6.106;2023-04-02T09:02:51;102.78;;;27.40;;
58685;SDS011;44465;53.206;-6.106;2023-04-02T09:05:22;100.53;;;29.58;;
58685;SDS011;44465;53.206;-6.106;2023-04-02T09:07:55;111.13;;;31.52;;
58685;SDS011;44465;53.206;-6.106;2023-04-02T09:10:24;128.35;;;33.75;;
58685;SDS011;44465;53.206;-6.106;2023-04-02T09:13:07;136.07;;;40.20;;
58685;SDS011;44465;53.206;-6.106;2023-04-02T09:16:07;143.57;;;38.92;;
58685;SDS011;44465;53.206;-6.106;2023-04-02T09:18:35;150.40;;;41.28;;
58685;SDS011;44465;53.206;-6.106;2023-04-02T09:21:28;154.27;;;42.08;;
58685;SDS011;44465;53.206;-6.106;2023-04-02T09:23:52;159.43;;;45.35;;
58685;SDS011;44465;53.206;-6.106;2023-04-02T09:28:51;164.15;;;45.90;;
58685;SDS011;44465;53.206;-6.106;2023-04-02T09:31:37;180.65;;;49.13;;
58685;SDS011;44465;53.206;-6.106;2023-04-02T09:36:54;183.23;;;49.30;;
58685;SDS011;44465;53.206;-6.106;2023-04-02T09:39:23;183.32;;;52.00;;
58685;SDS011;44465;53.206;-6.106;2023-04-02T09:41:52;178.73;;;50.05;;
58685;SDS011;44465;53.206;-6.106;2023-04-02T09:46:58;194.30;;;51.13;;
58685;SDS011;44465;53.206;-6.106;2023-04-02T09:49:28;186.38;;;52.22;;
58685;SDS011;44465;53.206;-6.106;2023-04-02T09:52:07;186.00;;;52.45;;
58685;SDS011;44465;53.206;-6.106;2023-04-02T09:54:41;189.60;;;55.45;;
58685;SDS011;44465;53.206;-6.106;2023-04-02T09:59:50;179.32;;;51.28;;
58685;SDS011;44465;53.206;-6.106;2023-04-02T10:02:38;202.40;;;57.08;;
58685;SDS011;44465;53.206;-6.106;2023-04-02T10:05:05;193.50;;;57.27;;
58685;SDS011;44465;53.206;-6.106;2023-04-02T10:07:44;198.45;;;56.35;;
58685;SDS011;44465;53.206;-6.106;2023-04-02T10:10:29;204.50;;;57.72;;
58685;SDS011;44465;53.206;-6.106;2023-04-02T10:21:18;206.05;;;59.78;;
58685;SDS011;44465;53.206;-6.106;2023-04-02T10:23:47;194.40;;;57.85;;
58685;SDS011;44465;53.206;-6.106;2023-04-02T10:26:20;210.65;;;58.42;;
58685;SDS011;44465;53.206;-6.106;2023-04-02T10:34:56;193.18;;;55.60;;
58685;SDS011;44465;53.206;-6.106;2023-04-02T10:37:44;203.35;;;59.47;;
58685;SDS011;44465;53.206;-6.106;2023-04-02T10:40:19;192.93;;;56.72;;
58685;SDS011;44465;53.206;-6.106;2023-04-02T10:46:35;194.38;;;58.05;;
58685;SDS011;44465;53.206;-6.106;2023-04-02T10:49:15;198.90;;;61.08;;
58685;SDS011;44465;53.206;-6.106;2023-04-02T10:54:24;195.65;;;59.40;;
58685;SDS011;44465;53.206;-6.106;2023-04-02T10:57:09;185.85;;;57.30;;
58685;SDS011;44465;53.206;-6.106;2023-04-02T10:59:36;187.60;;;59.53;;
58685;SDS011;44465;53.206;-6.106;2023-04-02T11:02:14;203.27;;;60.40;;
58685;SDS011;44465;53.206;-6.106;2023-04-02T11:04:52;187.23;;;57.08;;
58685;SDS011;44465;53.206;-6.106;2023-04-02T11:07:21;186.88;;;58.28;;
58685;SDS011;44465;53.206;-6.106;2023-04-02T11:09:51;183.52;;;57.42;;
58685;SDS011;44465;53.206;-6.106;2023-04-02T11:12:22;181.57;;;59.53;;
58685;SDS011;44465;53.206;-6.106;2023-04-02T11:14:51;178.43;;;57.00;;
58685;SDS011;44465;53.206;-6.106;2023-04-02T11:17:19;192.38;;;59.65;;
58685;SDS011;44465;53.206;-6.106;2023-04-02T11:19:45;189.13;;;57.10;;
58685;SDS011;44465;53.206;-6.106;2023-04-02T11:24:50;179.98;;;59.53;;
58685;SDS011;44465;53.206;-6.106;2023-04-02T11:27:24;186.18;;;59.30;;
58685;SDS011;44465;53.206;-6.106;2023-04-02T11:30:01;175.07;;;58.38;;
58685;SDS011;44465;53.206;-6.106;2023-04-02T11:32:44;177.20;;;58.38;;
58685;SDS011;44465;53.206;-6.106;2023-04-02T11:38:48;180.05;;;56.15;;
58685;SDS011;44465;53.206;-6.106;2023-04-02T11:40:47;182.82;;;56.45;;
58685;SDS011;44465;53.206;-6.106;2023-04-02T11:46:02;173.55;;;55.85;;
58685;SDS011;44465;53.206;-6.106;2023-04-02T11:48:50;181.35;;;54.88;;
58685;SDS011;44465;53.206;-6.106;2023-04-02T11:54:19;169.30;;;54.30;;
58685;SDS011;44465;53.206;-6.106;2023-04-02T11:56:51;176.68;;;56.97;;
58685;SDS011;44465;53.206;-6.106;2023-04-02T11:59:37;162.20;;;56.75;;
58685;SDS011;44465;53.206;-6.106;2023-04-02T12:02:18;168.20;;;56.13;;
58685;SDS011;44465;53.206;-6.106;2023-04-02T12:10:14;159.88;;;54.78;;
58685;SDS011;44465;53.206;-6.106;2023-04-02T12:12:42;160.32;;;56.53;;
58685;SDS011;44465;53.206;-6.106;2023-04-02T12:16:09;171.60;;;58.33;;
58685;SDS011;44465;53.206;-6.106;2023-04-02T12:18:13;169.13;;;56.67;;
58685;SDS011;44465;53.206;-6.106;2023-04-02T12:20:45;157.75;;;57.05;;
58685;SDS011;44465;53.206;-6.106;2023-04-02T12:23:18;172.68;;;60.58;;
58685;SDS011;44465;53.206;-6.106;2023-04-02T12:25:52;169.75;;;59.13;;
58685;SDS011;44465;53.206;-6.106;2023-04-02T12:28:20;157.25;;;56.88;;
58685;SDS011;44465;53.206;-6.106;2023-04-02T12:30:46;173.27;;;58.15;;
58685;SDS011;44465;53.206;-6.106;2023-04-02T12:33:25;185.90;;;67.00;;
58685;SDS011;44465;53.206;-6.106;2023-04-02T12:36:02;176.45;;;58.13;;
58685;SDS011;44465;53.206;-6.106;2023-04-02T12:38:53;180.07;;;58.65;;
58685;SDS011;44465;53.206;-6.106;2023-04-02T12:41:24;170.35;;;61.13;;
58685;SDS011;44465;53.206;-6.106;2023-04-02T12:46:43;176.98;;;60.08;;
58685;SDS011;44465;53.206;-6.106;2023-04-02T12:51:58;172.50;;;57.88;;
58685;SDS011;44465;53.206;-6.106;2023-04-02T12:54:27;154.60;;;57.92;;
58685;SDS011;44465;53.206;-6.106;2023-04-02T12:57:18;170.52;;;58.20;;
58685;SDS011;44465;53.206;-6.106;2023-04-02T12:59:46;158.77;;;58.17;;
58685;SDS011;44465;53.206;-6.106;2023-04-02T13:02:18;173.90;;;57.35;;
58685;SDS011;44465;53.206;-6.106;2023-04-02T13:04:50;165.40;;;60.50;;
58685;SDS011;44465;53.206;-6.106;2023-04-02T13:07:18;149.18;;;54.47;;
58685;SDS011;44465;53.206;-6.106;2023-04-02T13:09:47;156.30;;;57.63;;
58685;SDS011;44465;53.206;-6.106;2023-04-02T13:14:55;158.13;;;54.50;;
58685;SDS011;44465;53.206;-6.106;2023-04-02T13:22:56;158.77;;;58.47;;
58685;SDS011;44465;53.206;-6.106;2023-04-02T13:25:28;145.80;;;53.10;;
58685;SDS011;44465;53.206;-6.106;2023-04-02T13:27:55;150.77;;;55.03;;
58685;SDS011;44465;53.206;-6.106;2023-04-02T13:30:23;152.35;;;54.30;;
58685;SDS011;44465;53.206;-6.106;2023-04-02T13:32:50;148.82;;;56.85;;
58685;SDS011;44465;53.206;-6.106;2023-04-02T13:35:16;153.00;;;56.17;;
58685;SDS011;44465;53.206;-6.106;2023-04-02T13:37:41;146.23;;;55.50;;
58685;SDS011;44465;53.206;-6.106;2023-04-02T13:40:11;153.00;;;53.95;;
58685;SDS011;44465;53.206;-6.106;2023-04-02T13:42:39;140.48;;;50.88;;
58685;SDS011;44465;53.206;-6.106;2023-04-02T13:45:40;139.05;;;51.70;;
58685;SDS011;44465;53.206;-6.106;2023-04-02T13:48:00;136.45;;;49.45;;
58685;SDS011;44465;53.206;-6.106;2023-04-02T13:50:28;131.60;;;50.30;;
58685;SDS011;44465;53.206;-6.106;2023-04-02T13:52:57;124.65;;;49.42;;
58685;SDS011;44465;53.206;-6.106;2023-04-02T13:55:27;120.88;;;47.83;;
58685;SDS011;44465;53.206;-6.106;2023-04-02T13:57:55;119.07;;;48.85;;
58685;SDS011;44465;53.206;-6.106;2023-04-02T14:00:21;118.60;;;47.70;;
58685;SDS011;44465;53.206;-6.106;2023-04-02T14:02:52;123.63;;;48.95;;
58685;SDS011;44465;53.206;-6.106;2023-04-02T14:05:26;134.30;;;52.90;;
58685;SDS011;44465;53.206;-6.106;2023-04-02T14:08:08;138.57;;;54.00;;
58685;SDS011;44465;53.206;-6.106;2023-04-02T14:10:43;134.15;;;53.10;;
58685;SDS011;44465;53.206;-6.106;2023-04-02T14:15:58;139.55;;;53.28;;
58685;SDS011;44465;53.206;-6.106;2023-04-02T14:21:42;143.32;;;56.72;;
58685;SDS011;44465;53.206;-6.106;2023-04-02T14:32:54;163.77;;;63.97;;
58685;SDS011;44465;53.206;-6.106;2023-04-02T14:35:37;153.85;;;61.28;;
58685;SDS011;44465;53.206;-6.106;2023-04-02T14:38:19;157.73;;;63.80;;
58685;SDS011;44465;53.206;-6.106;2023-04-02T14:41:03;154.30;;;62.20;;
58685;SDS011;44465;53.206;-6.106;2023-04-02T14:43:31;156.90;;;63.45;;
58685;SDS011;44465;53.206;-6.106;2023-04-02T14:46:27;169.15;;;65.20;;
58685;SDS011;44465;53.206;-6.106;2023-04-02T14:48:57;161.23;;;64.90;;
58685;SDS011;44465;53.206;-6.106;2023-04-02T14:52:08;161.75;;;64.60;;
58685;SDS011;44465;53.206;-6.106;2023-04-02T14:54:41;157.55;;;63.35;;
58685;SDS011;44465;53.206;-6.106;2023-04-02T14:57:22;161.60;;;67.50;;
58685;SDS011;44465;53.206;-6.106;2023-04-02T15:05:21;154.05;;;62.15;;
58685;SDS011;44465;53.206;-6.106;2023-04-02T15:08:00;162.68;;;66.90;;
58685;SDS011;44465;53.206;-6.106;2023-04-02T15:10:30;157.30;;;63.83;;
58685;SDS011;44465;53.206;-6.106;2023-04-02T15:13:11;156.73;;;61.00;;
58685;SDS011;44465;53.206;-6.106;2023-04-02T15:15:46;171.32;;;64.70;;
58685;SDS011;44465;53.206;-6.106;2023-04-02T15:18:20;155.73;;;62.72;;
58685;SDS011;44465;53.206;-6.106;2023-04-02T15:23:43;140.82;;;62.40;;
58685;SDS011;44465;53.206;-6.106;2023-04-02T15:29:06;157.70;;;63.67;;
58685;SDS011;44465;53.206;-6.106;2023-04-02T15:31:43;162.20;;;64.78;;
58685;SDS011;44465;53.206;-6.106;2023-04-02T15:37:30;151.70;;;65.10;;
58685;SDS011;44465;53.206;-6.106;2023-04-02T15:42:24;149.77;;;65.43;;
58685;SDS011;44465;53.206;-6.106;2023-04-02T16:04:10;118.53;;;52.05;;
58685;SDS011;44465;53.206;-6.106;2023-04-02T16:09:27;122.32;;;48.47;;
58685;SDS011;44465;53.206;-6.106;2023-04-02T16:12:10;107.90;;;46.47;;
58685;SDS011;44465;53.206;-6.106;2023-04-02T16:14:39;104.93;;;44.03;;
58685;SDS011;44465;53.206;-6.106;2023-04-02T16:17:10;100.82;;;46.53;;
58685;SDS011;44465;53.206;-6.106;2023-04-02T16:19:43;101.50;;;43.85;;
58685;SDS011;44465;53.206;-6.106;2023-04-02T16:22:19;95.22;;;41.35;;
58685;SDS011;44465;53.206;-6.106;2023-04-02T16:24:58;94.03;;;41.58;;
58685;SDS011;44465;53.206;-6.106;2023-04-02T16:27:37;84.60;;;38.53;;
58685;SDS011;44465;53.206;-6.106;2023-04-02T16:30:12;87.68;;;41.05;;
58685;SDS011;44465;53.206;-6.106;2023-04-02T16:38:43;95.03;;;40.83;;
58685;SDS011;44465;53.206;-6.106;2023-04-02T16:41:32;95.75;;;40.67;;
58685;SDS011;44465;53.206;-6.106;2023-04-02T16:50:16;116.35;;;47.72;;
58685;SDS011;44465;53.206;-6.106;2023-04-02T17:07:35;129.65;;;49.78;;
58685;SDS011;44465;53.206;-6.106;2023-04-02T17:12:55;115.80;;;48.25;;
58685;SDS011;44465;53.206;-6.106;2023-04-02T17:15:39;120.32;;;49.90;;
58685;SDS011;44465;53.206;-6.106;2023-04-02T17:18:19;123.32;;;52.13;;
58685;SDS011;44465;53.206;-6.106;2023-04-02T17:20:49;131.13;;;53.60;;
58685;SDS011;44465;53.206;-6.106;2023-04-02T17:23:17;141.95;;;55.58;;
58685;SDS011;44465;53.206;-6.106;2023-04-02T17:25:55;135.77;;;57.38;;
58685;SDS011;44465;53.206;-6.106;2023-04-02T17:28:25;147.60;;;58.35;;
58685;SDS011;44465;53.206;-6.106;2023-04-02T17:31:00;143.50;;;56.22;;
58685;SDS011;44465;53.206;-6.106;2023-04-02T17:33:29;142.05;;;56.92;;
58685;SDS011;44465;53.206;-6.106;2023-04-02T17:49:21;160.57;;;61.60;;
58685;SDS011;44465;53.206;-6.106;2023-04-02T17:52:05;154.60;;;62.67;;
58685;SDS011;44465;53.206;-6.106;2023-04-02T18:00:02;162.18;;;64.05;;
58685;SDS011;44465;53.206;-6.106;2023-04-02T18:05:58;159.68;;;64.70;;
58685;SDS011;44465;53.206;-6.106;2023-04-02T18:14:02;159.90;;;62.80;;
58685;SDS011;44465;53.206;-6.106;2023-04-02T18:19:16;150.20;;;63.47;;
58685;SDS011;44465;53.206;-6.106;2023-04-02T18:27:26;153.35;;;62.83;;
58685;SDS011;44465;53.206;-6.106;2023-04-02T18:35:34;149.10;;;63.92;;
58685;SDS011;44465;53.206;-6.106;2023-04-02T18:38:15;154.90;;;65.25;;
58685;SDS011;44465;53.206;-6.106;2023-04-02T18:46:43;156.55;;;62.60;;
58685;SDS011;44465;53.206;-6.106;2023-04-02T18:51:46;165.40;;;66.22;;
58685;SDS011;44465;53.206;-6.106;2023-04-02T18:54:33;162.27;;;68.68;;
58685;SDS011;44465;53.206;-6.106;2023-04-02T18:57:15;152.93;;;65.40;;
58685;SDS011;44465;53.206;-6.106;2023-04-02T18:59:56;158.52;;;68.38;;
58685;SDS011;44465;53.206;-6.106;2023-04-02T19:05:16;154.02;;;65.20;;
58685;SDS011;44465;53.206;-6.106;2023-04-02T19:07:58;157.73;;;67.68;;
58685;SDS011;44465;53.206;-6.106;2023-04-02T19:10:36;157.40;;;66.93;;
58685;SDS011;44465;53.206;-6.106;2023-04-02T19:13:20;162.77;;;66.57;;
58685;SDS011;44465;53.206;-6.106;2023-04-02T19:15:51;159.93;;;67.03;;
58685;SDS011;44465;53.206;-6.106;2023-04-02T19:26:52;155.10;;;64.95;;
58685;SDS011;44465;53.206;-6.106;2023-04-02T19:34:25;150.85;;;67.97;;
58685;SDS011;44465;53.206;-6.106;2023-04-02T19:37:14;155.55;;;67.03;;
58685;SDS011;44465;53.206;-6.106;2023-04-02T19:42:42;146.38;;;63.22;;
58685;SDS011;44465;53.206;-6.106;2023-04-02T19:47:58;145.95;;;61.22;;
58685;SDS011;44465;53.206;-6.106;2023-04-02T19:50:28;141.20;;;59.88;;
58685;SDS011;44465;53.206;-6.106;2023-04-02T19:52:53;135.20;;;60.47;;
58685;SDS011;44465;53.206;-6.106;2023-04-02T19:55:19;136.95;;;59.50;;
58685;SDS011;44465;53.206;-6.106;2023-04-02T19:57:45;130.30;;;57.28;;
58685;SDS011;44465;53.206;-6.106;2023-04-02T20:00:11;125.32;;;54.40;;
58685;SDS011;44465;53.206;-6.106;2023-04-02T20:02:39;138.65;;;54.95;;
58685;SDS011;44465;53.206;-6.106;2023-04-02T20:05:04;129.98;;;53.70;;
58685;SDS011;44465;53.206;-6.106;2023-04-02T20:07:30;116.00;;;49.42;;
58685;SDS011;44465;53.206;-6.106;2023-04-02T20:09:56;109.38;;;47.55;;
58685;SDS011;44465;53.206;-6.106;2023-04-02T20:12:21;111.32;;;46.40;;
58685;SDS011;44465;53.206;-6.106;2023-04-02T20:14:47;95.45;;;42.65;;
58685;SDS011;44465;53.206;-6.106;2023-04-02T20:17:12;134.32;;;43.65;;
58685;SDS011;44465;53.206;-6.106;2023-04-02T20:19:38;106.40;;;40.92;;
58685;SDS011;44465;53.206;-6.106;2023-04-02T20:22:03;87.60;;;40.20;;